Time;durP1;ratioP1;P1;durP2;ratioP2;P2;SDS_P1;SDS_P2;PMS_P1;PMS_P2;Temp;Humidity;BMP_temperature;BMP_pressure;BME280_temperature;BME280_humidity;BME280_pressure;Samples;Min_cycle;Max_cycle;Signal;HPM_P1;HPM_P2
2024/01/24 00:00:21;;;;;;;2.13;0.63;;;12.10;99.90;;;;;;5087717;28;20041;-65
2024/01/24 00:02:48;;;;;;;3.45;0.98;;;12.10;99.90;;;;;;5087801;28;20032;-65
2024/01/24 00:05:14;;;;;;;3.22;0.95;;;12.10;99.90;;;;;;5102963;27;20047;-65
2024/01/24 00:07:40;;;;;;;5.05;0.88;;;12.10;99.90;;;;;;5119056;27;20650;-65
2024/01/24 00:10:06;;;;;;;6.65;1.88;;;12.20;99.90;;;;;;5089348;28;20583;-65
2024/01/24 00:12:31;;;;;;;5.55;1.05;;;12.20;99.90;;;;;;5085523;28;20033;-65
2024/01/24 00:14:57;;;;;;;3.88;0.57;;;12.20;99.90;;;;;;5090431;28;20051;-65
2024/01/24 00:17:23;;;;;;;3.55;0.75;;;12.20;99.90;;;;;;5085605;28;20277;-65
2024/01/24 00:19:48;;;;;;;7.25;0.95;;;12.10;99.90;;;;;;5094357;28;20119;-65
2024/01/24 00:22:14;;;;;;;4.15;0.63;;;12.20;99.90;;;;;;5088244;28;20524;-65
2024/01/24 00:24:40;;;;;;;5.78;1.15;;;12.20;99.90;;;;;;5089513;28;20067;-65
2024/01/24 00:27:06;;;;;;;5.57;1.15;;;12.20;99.90;;;;;;5090589;28;20134;-65
2024/01/24 00:29:31;;;;;;;4.22;0.65;;;12.20;99.90;;;;;;5086432;28;20533;-65
2024/01/24 00:31:57;;;;;;;6.25;1.10;;;12.30;99.90;;;;;;5090663;28;20397;-65
2024/01/24 00:34:23;;;;;;;5.55;0.63;;;12.30;99.90;;;;;;5090907;28;20031;-65
2024/01/24 00:36:49;;;;;;;5.68;0.55;;;12.30;99.90;;;;;;5085115;28;20050;-65
2024/01/24 00:39:16;;;;;;;4.72;0.90;;;12.30;99.90;;;;;;5087188;28;20039;-65
2024/01/24 00:41:42;;;;;;;9.40;1.35;;;12.30;99.90;;;;;;5088274;28;20068;-64
2024/01/24 00:44:09;;;;;;;5.57;0.70;;;12.30;99.90;;;;;;5085159;28;20067;-64
2024/01/24 00:46:35;;;;;;;4.25;0.82;;;12.30;99.90;;;;;;5117942;27;20032;-65
2024/01/24 00:49:02;;;;;;;6.25;1.30;;;12.20;99.90;;;;;;5086073;28;20042;-65
2024/01/24 00:51:28;;;;;;;9.15;1.92;;;12.30;99.90;;;;;;5084049;28;20046;-65
2024/01/24 00:53:53;;;;;;;6.38;1.35;;;12.30;99.90;;;;;;5080001;28;20052;-64
2024/01/24 00:56:20;;;;;;;4.85;0.63;;;12.30;99.90;;;;;;5099384;27;20058;-64
2024/01/24 00:58:46;;;;;;;7.38;1.00;;;12.20;99.90;;;;;;5085294;28;20050;-64
2024/01/24 01:01:11;;;;;;;4.72;0.85;;;12.30;99.90;;;;;;5087643;28;20493;-64
2024/01/24 01:03:38;;;;;;;3.47;0.68;;;12.30;99.90;;;;;;5084247;28;20184;-64
2024/01/24 01:06:04;;;;;;;4.53;0.73;;;12.30;99.90;;;;;;5088773;28;20551;-64
2024/01/24 01:08:30;;;;;;;5.03;0.75;;;12.40;99.90;;;;;;5086872;28;20123;-64
2024/01/24 01:10:56;;;;;;;2.22;0.45;;;12.50;99.90;;;;;;5084968;28;20573;-65
2024/01/24 01:13:22;;;;;;;4.80;1.27;;;12.40;99.90;;;;;;5082398;28;20110;-65
2024/01/24 01:15:47;;;;;;;5.80;1.38;;;12.50;99.90;;;;;;5087302;28;20039;-64
2024/01/24 01:18:13;;;;;;;3.38;0.60;;;12.50;99.90;;;;;;5088444;28;20036;-64
2024/01/24 01:20:38;;;;;;;4.57;0.95;;;12.50;99.90;;;;;;5088611;28;20040;-64
2024/01/24 01:23:04;;;;;;;5.35;0.60;;;12.50;99.90;;;;;;5084388;28;20076;-65
2024/01/24 01:25:30;;;;;;;3.05;0.35;;;12.60;99.90;;;;;;5082103;28;20046;-64
2024/01/24 01:27:55;;;;;;;3.17;0.30;;;12.60;99.90;;;;;;5082612;28;20043;-64
2024/01/24 01:30:23;;;;;;;1.65;0.28;;;12.60;99.90;;;;;;5104455;28;20035;-65
2024/01/24 01:32:49;;;;;;;2.70;0.60;;;12.60;99.90;;;;;;5085641;28;20039;-65
2024/01/24 01:35:15;;;;;;;5.15;0.65;;;12.60;99.90;;;;;;5117324;27;20044;-64
2024/01/24 01:37:40;;;;;;;4.20;0.60;;;12.60;99.90;;;;;;5085675;28;20398;-65
2024/01/24 01:40:06;;;;;;;3.55;0.22;;;12.60;99.90;;;;;;5085572;28;20074;-65
2024/01/24 01:42:32;;;;;;;4.63;0.50;;;12.50;99.90;;;;;;5083424;28;20036;-65
2024/01/24 01:44:58;;;;;;;2.58;0.25;;;12.40;99.90;;;;;;5086138;28;20043;-65
2024/01/24 01:47:24;;;;;;;2.25;0.32;;;12.50;99.90;;;;;;5083067;28;20044;-65
2024/01/24 01:49:51;;;;;;;2.03;0.38;;;12.50;99.90;;;;;;5118663;27;20155;-65
2024/01/24 01:52:17;;;;;;;4.43;0.55;;;12.50;99.90;;;;;;5092481;28;20039;-65
2024/01/24 01:54:44;;;;;;;2.45;0.73;;;12.50;99.90;;;;;;5087492;28;20040;-65
2024/01/24 01:57:11;;;;;;;3.90;0.47;;;12.50;99.90;;;;;;5108396;27;20041;-64
2024/01/24 01:59:39;;;;;;;4.53;0.57;;;12.30;99.90;;;;;;5089318;28;20123;-65
2024/01/24 02:02:06;;;;;;;3.78;0.30;;;12.50;99.90;;;;;;5096955;28;20569;-65
2024/01/24 02:04:32;;;;;;;5.00;0.90;;;12.30;99.90;;;;;;5088549;28;20130;-65
2024/01/24 02:06:57;;;;;;;3.10;0.65;;;12.30;99.90;;;;;;5094217;28;20148;-65
2024/01/24 02:09:23;;;;;;;5.07;0.68;;;12.20;99.90;;;;;;5089579;28;20032;-65
2024/01/24 02:11:49;;;;;;;5.47;0.50;;;12.30;99.90;;;;;;5090298;28;20130;-64
2024/01/24 02:14:14;;;;;;;7.30;1.10;;;12.20;99.90;;;;;;5093469;28;20131;-64
2024/01/24 02:16:40;;;;;;;5.43;0.70;;;12.20;99.90;;;;;;5089707;28;20123;-65
2024/01/24 02:19:06;;;;;;;5.70;0.80;;;12.30;99.90;;;;;;5090709;28;20057;-65
2024/01/24 02:21:33;;;;;;;5.13;0.98;;;12.40;99.90;;;;;;5094327;28;20051;-65
2024/01/24 02:23:59;;;;;;;4.28;0.52;;;12.20;99.90;;;;;;5088662;28;20040;-65
2024/01/24 02:26:25;;;;;;;3.63;0.45;;;12.20;99.90;;;;;;5086276;28;20148;-64
2024/01/24 02:28:51;;;;;;;7.15;0.90;;;12.10;99.90;;;;;;5090725;28;20111;-64
2024/01/24 02:31:16;;;;;;;6.88;1.33;;;12.10;99.90;;;;;;5090245;28;20040;-64
2024/01/24 02:33:42;;;;;;;4.18;0.60;;;12.30;99.90;;;;;;5118711;27;20161;-65
2024/01/24 02:36:09;;;;;;;4.95;1.00;;;12.00;99.90;;;;;;5090576;28;20468;-65
2024/01/24 02:38:35;;;;;;;4.80;0.90;;;12.00;99.90;;;;;;5084597;28;20040;-64
2024/01/24 02:41:01;;;;;;;3.10;0.47;;;11.90;99.90;;;;;;5092261;28;20035;-65
2024/01/24 02:43:27;;;;;;;6.53;0.73;;;11.90;99.90;;;;;;5089560;28;20033;-65
2024/01/24 02:45:52;;;;;;;4.88;0.90;;;11.90;99.90;;;;;;5091435;28;20058;-65
2024/01/24 02:48:18;;;;;;;4.65;0.60;;;11.80;99.90;;;;;;5088433;28;20486;-65
2024/01/24 02:50:44;;;;;;;5.60;0.80;;;11.70;99.90;;;;;;5091971;28;20040;-64
2024/01/24 02:53:09;;;;;;;6.88;1.02;;;11.70;99.90;;;;;;5089379;28;20075;-64
2024/01/24 02:55:35;;;;;;;9.98;2.42;;;11.70;99.90;;;;;;5087370;28;20123;-65
2024/01/24 02:58:00;;;;;;;6.38;1.02;;;11.60;99.90;;;;;;5114470;27;20206;-64
2024/01/24 03:00:27;;;;;;;10.70;1.92;;;11.50;99.90;;;;;;5089621;28;20122;-65
2024/01/24 03:02:53;;;;;;;11.98;2.22;;;11.60;99.90;;;;;;5089316;28;20204;-64
2024/01/24 03:05:19;;;;;;;8.50;1.70;;;11.50;99.90;;;;;;5080627;28;20036;-64
2024/01/24 03:07:44;;;;;;;10.15;1.33;;;11.50;99.90;;;;;;5088175;28;20501;-65
2024/01/24 03:10:10;;;;;;;10.75;1.80;;;11.40;99.90;;;;;;5094482;28;20024;-64
2024/01/24 03:12:37;;;;;;;13.02;2.22;;;11.40;99.90;;;;;;5094379;28;20032;-65
2024/01/24 03:15:03;;;;;;;12.88;2.72;;;11.40;99.90;;;;;;5119024;27;20075;-64
2024/01/24 03:17:28;;;;;;;11.48;2.10;;;11.30;99.90;;;;;;5091939;28;20074;-65
2024/01/24 03:19:55;;;;;;;12.90;3.60;;;11.30;99.90;;;;;;5082759;28;20040;-64
2024/01/24 03:22:20;;;;;;;10.23;2.00;;;11.30;99.90;;;;;;5088747;28;20043;-64
2024/01/24 03:24:46;;;;;;;16.58;2.38;;;11.20;99.90;;;;;;5068234;28;20040;-64
2024/01/24 03:27:11;;;;;;;9.90;1.60;;;11.20;99.90;;;;;;5079978;28;20131;-64
2024/01/24 03:29:37;;;;;;;10.60;2.58;;;11.20;99.90;;;;;;5089760;28;20419;-64
2024/01/24 03:32:03;;;;;;;12.63;2.22;;;11.30;99.90;;;;;;5090295;28;20028;-64
2024/01/24 03:34:31;;;;;;;14.82;2.55;;;11.30;99.90;;;;;;5083384;27;20066;-65
2024/01/24 03:36:57;;;;;;;9.43;1.95;;;11.20;99.90;;;;;;5085812;28;20498;-64
2024/01/24 03:39:22;;;;;;;10.98;2.58;;;11.20;99.90;;;;;;5085468;28;20059;-65
2024/01/24 03:41:48;;;;;;;14.48;2.28;;;11.20;99.90;;;;;;5081034;28;20036;-65
2024/01/24 03:44:14;;;;;;;16.38;2.78;;;11.20;99.90;;;;;;5088727;28;20036;-64
2024/01/24 03:46:39;;;;;;;10.95;3.13;;;11.20;99.90;;;;;;5086700;28;20509;-65
2024/01/24 03:49:05;;;;;;;12.15;2.88;;;11.20;99.90;;;;;;5119651;27;20112;-65
2024/01/24 03:51:30;;;;;;;14.45;2.90;;;11.00;99.90;;;;;;5086020;28;20391;-64
2024/01/24 03:53:56;;;;;;;16.75;2.55;;;11.10;99.90;;;;;;5088646;28;20047;-64
2024/01/24 03:56:22;;;;;;;16.40;3.15;;;11.00;99.90;;;;;;5082592;28;20547;-65
2024/01/24 03:58:48;;;;;;;13.45;2.63;;;11.10;99.90;;;;;;5091955;28;20044;-65
2024/01/24 04:01:13;;;;;;;16.75;3.30;;;11.00;99.90;;;;;;5089717;28;20081;-65
2024/01/24 04:03:39;;;;;;;12.95;3.95;;;11.00;99.90;;;;;;5086773;28;20542;-64
2024/01/24 04:06:04;;;;;;;18.85;5.20;;;11.10;99.90;;;;;;5090560;28;20078;-64
2024/01/24 04:08:30;;;;;;;16.35;4.07;;;11.00;99.90;;;;;;5086395;28;20055;-64
2024/01/24 04:10:56;;;;;;;12.85;3.08;;;11.00;99.90;;;;;;5088496;28;20040;-65
2024/01/24 04:13:21;;;;;;;16.08;4.07;;;11.00;99.90;;;;;;5085117;28;20123;-65
2024/01/24 04:15:47;;;;;;;17.80;4.45;;;11.00;99.90;;;;;;5084098;28;21750;-64
2024/01/24 04:18:12;;;;;;;16.83;3.50;;;11.00;99.90;;;;;;5086941;28;20042;-65
2024/01/24 04:20:38;;;;;;;24.42;4.53;;;11.00;99.90;;;;;;5086059;28;20121;-65
2024/01/24 04:23:04;;;;;;;17.92;2.97;;;11.00;99.90;;;;;;5084286;28;20532;-65
2024/01/24 04:25:30;;;;;;;15.10;3.40;;;11.00;99.90;;;;;;5088451;28;21147;-64
2024/01/24 04:27:55;;;;;;;20.55;5.00;;;10.90;99.90;;;;;;5086204;28;20052;-64
2024/01/24 04:30:21;;;;;;;17.05;4.20;;;11.00;99.90;;;;;;5088564;28;20385;-64
2024/01/24 04:32:47;;;;;;;23.30;3.80;;;11.00;99.90;;;;;;5090535;28;20130;-65
2024/01/24 04:35:13;;;;;;;18.20;3.30;;;11.00;99.90;;;;;;5084052;28;20190;-65
2024/01/24 04:37:38;;;;;;;20.77;4.40;;;10.90;99.90;;;;;;5111198;27;20086;-65
2024/01/24 04:40:06;;;;;;;20.55;4.00;;;10.90;99.90;;;;;;5085219;28;20043;-64
2024/01/24 04:42:32;;;;;;;17.77;3.40;;;10.90;99.90;;;;;;5083618;28;20043;-65
2024/01/24 04:44:57;;;;;;;15.80;4.40;;;10.90;99.90;;;;;;5088662;28;20039;-65
2024/01/24 04:47:23;;;;;;;22.60;4.40;;;10.90;99.90;;;;;;5082920;28;20043;-65
2024/01/24 04:49:49;;;;;;;20.92;5.55;;;10.90;99.90;;;;;;5083822;28;20521;-64
2024/01/24 04:52:15;;;;;;;19.70;4.63;;;10.80;99.90;;;;;;5084605;28;20044;-65
2024/01/24 04:54:41;;;;;;;16.77;3.13;;;10.80;99.90;;;;;;5068719;28;20052;-65
2024/01/24 04:57:07;;;;;;;20.23;4.82;;;10.80;99.90;;;;;;5097326;27;20662;-65
2024/01/24 04:59:33;;;;;;;20.80;4.40;;;10.80;99.90;;;;;;5087962;28;20039;-65
2024/01/24 05:01:58;;;;;;;27.60;5.43;;;10.80;99.90;;;;;;5085619;28;20114;-64
2024/01/24 05:04:24;;;;;;;18.38;4.13;;;10.80;99.90;;;;;;5085813;28;20482;-65
2024/01/24 05:06:50;;;;;;;18.50;4.22;;;10.80;99.90;;;;;;5079941;28;20346;-65
2024/01/24 05:09:16;;;;;;;22.27;5.80;;;10.80;99.90;;;;;;5080217;28;20043;-65
2024/01/24 05:11:42;;;;;;;24.27;5.40;;;10.80;99.90;;;;;;5079402;28;20035;-65
2024/01/24 05:14:08;;;;;;;19.35;5.07;;;10.80;99.90;;;;;;5079535;28;20116;-64
2024/01/24 05:16:33;;;;;;;22.88;5.32;;;10.80;99.90;;;;;;5080061;28;20043;-65
2024/01/24 05:18:59;;;;;;;29.50;5.60;;;10.80;99.90;;;;;;5083522;28;20044;-64
2024/01/24 05:21:25;;;;;;;29.58;6.57;;;10.80;99.90;;;;;;5086510;28;20046;-65
2024/01/24 05:23:51;;;;;;;28.58;7.22;;;10.70;99.90;;;;;;5077098;28;20085;-64
2024/01/24 05:26:17;;;;;;;21.13;4.75;;;10.80;99.90;;;;;;5083746;28;20040;-65
2024/01/24 05:28:42;;;;;;;22.50;5.78;;;10.80;99.90;;;;;;5087044;28;20043;-64
2024/01/24 05:31:08;;;;;;;27.80;6.65;;;10.70;99.90;;;;;;5087480;28;20032;-65
2024/01/24 05:33:34;;;;;;;26.50;5.93;;;10.70;99.90;;;;;;5086494;28;20032;-65
2024/01/24 05:36:00;;;;;;;20.60;4.30;;;10.60;99.90;;;;;;5085043;28;20039;-64
2024/01/24 05:38:27;;;;;;;20.05;5.55;;;10.60;99.90;;;;;;5067397;28;20166;-65
2024/01/24 05:40:53;;;;;;;32.50;5.18;;;10.50;99.90;;;;;;5085582;28;20054;-65
2024/01/24 05:43:18;;;;;;;25.90;6.65;;;10.60;99.90;;;;;;5085110;28;20040;-65
2024/01/24 05:45:44;;;;;;;25.85;5.72;;;10.50;99.90;;;;;;5078944;28;20073;-65
2024/01/24 05:48:10;;;;;;;30.67;6.47;;;10.50;99.90;;;;;;5077696;28;20047;-65
2024/01/24 05:50:35;;;;;;;28.40;5.72;;;10.40;99.90;;;;;;5076961;28;20035;-65
2024/01/24 05:53:02;;;;;;;28.27;7.65;;;10.40;99.90;;;;;;5077914;28;20043;-65
2024/01/24 05:55:28;;;;;;;25.10;4.85;;;10.40;99.90;;;;;;5109360;27;20505;-65
2024/01/24 05:57:54;;;;;;;24.90;5.15;;;10.30;99.90;;;;;;5076254;28;20056;-65
2024/01/24 06:00:19;;;;;;;27.33;5.53;;;10.30;99.90;;;;;;5081242;28;20035;-65
2024/01/24 06:02:47;;;;;;;25.58;6.15;;;10.30;99.90;;;;;;5076028;28;20047;-65
2024/01/24 06:05:15;;;;;;;28.30;6.45;;;10.30;99.90;;;;;;5073984;28;20078;-65
2024/01/24 06:07:40;;;;;;;31.30;6.10;;;10.20;99.90;;;;;;5082325;28;20097;-65
2024/01/24 06:10:07;;;;;;;36.17;6.85;;;10.30;99.90;;;;;;5088878;28;20078;-65
2024/01/24 06:12:33;;;;;;;23.95;5.25;;;10.20;99.90;;;;;;5084206;28;20055;-65
2024/01/24 06:14:58;;;;;;;23.02;6.30;;;10.20;99.90;;;;;;5071790;28;20032;-65
2024/01/24 06:17:24;;;;;;;33.95;7.72;;;10.20;99.90;;;;;;5086605;28;20505;-65
2024/01/24 06:19:51;;;;;;;30.13;6.22;;;10.20;99.90;;;;;;5088403;28;20043;-65
2024/01/24 06:22:18;;;;;;;28.42;5.90;;;10.10;99.90;;;;;;5078863;28;20143;-65
2024/01/24 06:24:44;;;;;;;30.65;6.60;;;10.20;99.90;;;;;;5084324;28;20111;-65
2024/01/24 06:27:10;;;;;;;28.15;7.50;;;10.10;99.90;;;;;;5112651;27;20483;-65
2024/01/24 06:29:36;;;;;;;31.95;6.63;;;10.20;99.90;;;;;;5081099;28;20063;-65
2024/01/24 06:32:02;;;;;;;30.67;7.75;;;10.20;99.90;;;;;;5079399;28;20033;-65
2024/01/24 06:34:27;;;;;;;31.77;5.82;;;10.20;99.90;;;;;;5089113;28;20477;-65
2024/01/24 06:36:53;;;;;;;30.55;7.32;;;10.10;99.90;;;;;;5093741;28;20040;-65
2024/01/24 06:39:18;;;;;;;30.23;8.07;;;10.10;99.90;;;;;;5088773;28;20478;-65
2024/01/24 06:41:44;;;;;;;30.15;7.00;;;10.10;99.90;;;;;;5093003;28;20071;-65
2024/01/24 06:44:10;;;;;;;37.30;7.78;;;10.10;99.90;;;;;;5120528;27;20040;-65
2024/01/24 06:46:43;;;;;;;31.85;6.32;;;10.20;99.90;;;;;;5081339;28;20047;-65
2024/01/24 06:49:11;;;;;;;28.08;7.25;;;10.10;99.90;;;;;;5118908;27;20136;-65
2024/01/24 06:51:38;;;;;;;28.13;5.75;;;10.10;99.90;;;;;;5088704;28;20043;-65
2024/01/24 06:54:04;;;;;;;27.50;6.80;;;10.10;99.90;;;;;;5093054;28;20044;-64
2024/01/24 06:56:30;;;;;;;30.45;7.35;;;10.00;99.90;;;;;;5062274;28;20048;-65
2024/01/24 06:58:56;;;;;;;28.23;7.25;;;10.00;99.90;;;;;;5089509;28;20051;-65
2024/01/24 07:01:21;;;;;;;27.73;6.03;;;10.10;99.90;;;;;;5085344;28;20047;-65
2024/01/24 07:03:47;;;;;;;35.42;8.75;;;10.10;99.90;;;;;;5082390;28;20037;-65
2024/01/24 07:06:13;;;;;;;33.00;7.15;;;10.10;99.90;;;;;;5080369;28;20042;-65
2024/01/24 07:08:40;;;;;;;34.50;7.22;;;10.00;99.90;;;;;;5110600;27;20111;-65
2024/01/24 07:11:06;;;;;;;42.45;8.60;;;10.10;99.90;;;;;;5084490;28;20051;-65
2024/01/24 07:13:32;;;;;;;28.35;6.72;;;10.10;99.90;;;;;;5114780;27;20051;-65
2024/01/24 07:16:00;;;;;;;26.40;6.50;;;10.00;99.90;;;;;;5077581;28;20040;-65
2024/01/24 07:18:26;;;;;;;32.95;7.63;;;10.00;99.90;;;;;;5112543;27;20052;-65
2024/01/24 07:20:51;;;;;;;37.22;7.75;;;10.00;99.90;;;;;;5083132;28;20100;-65
2024/01/24 07:23:17;;;;;;;36.13;9.82;;;10.00;99.90;;;;;;5081828;28;20499;-65
2024/01/24 07:25:43;;;;;;;36.03;8.18;;;10.00;99.90;;;;;;5077288;28;20045;-65
2024/01/24 07:28:08;;;;;;;28.02;6.90;;;10.00;99.90;;;;;;5081967;28;20040;-65
2024/01/24 07:30:34;;;;;;;32.50;8.05;;;9.90;99.90;;;;;;5113146;27;20040;-65
2024/01/24 07:32:59;;;;;;;30.00;8.32;;;10.00;99.90;;;;;;5081506;28;20044;-65
2024/01/24 07:35:25;;;;;;;37.13;7.03;;;10.00;99.90;;;;;;5079633;28;20032;-65
2024/01/24 07:37:51;;;;;;;38.35;8.60;;;9.90;99.90;;;;;;5079745;28;20575;-65
2024/01/24 07:40:17;;;;;;;36.53;7.43;;;9.90;99.90;;;;;;5083843;28;20036;-65
2024/01/24 07:42:42;;;;;;;37.92;6.97;;;9.90;99.90;;;;;;5078328;28;20398;-65
2024/01/24 07:45:11;;;;;;;32.85;7.80;;;9.90;99.90;;;;;;5082550;28;20075;-65
2024/01/24 07:47:37;;;;;;;35.72;7.20;;;9.90;99.90;;;;;;5081569;28;20064;-65
2024/01/24 07:50:03;;;;;;;33.42;7.38;;;9.90;99.90;;;;;;5081981;28;20079;-65
2024/01/24 07:52:29;;;;;;;37.35;7.47;;;9.90;99.90;;;;;;5081644;28;20482;-65
2024/01/24 07:54:54;;;;;;;32.78;7.25;;;9.90;99.90;;;;;;5077484;28;20094;-65
2024/01/24 07:57:20;;;;;;;32.38;7.22;;;9.80;99.90;;;;;;5076629;28;20048;-65
2024/01/24 07:59:45;;;;;;;43.70;9.88;;;10.20;99.90;;;;;;5081037;28;20058;-65
2024/01/24 08:02:13;;;;;;;32.70;8.82;;;9.90;99.90;;;;;;5082828;28;20064;-65
2024/01/24 08:04:39;;;;;;;35.15;8.30;;;9.90;99.90;;;;;;5117468;27;21005;-65
2024/01/24 08:07:04;;;;;;;29.42;7.25;;;9.80;99.90;;;;;;5115152;27;20166;-65
2024/01/24 08:09:30;;;;;;;39.08;8.48;;;9.90;99.90;;;;;;5075636;28;20032;-65
2024/01/24 08:11:56;;;;;;;34.33;6.90;;;9.80;99.90;;;;;;5077597;28;20505;-64
2024/01/24 08:14:21;;;;;;;33.75;7.95;;;10.40;99.90;;;;;;5114314;27;20043;-65
2024/01/24 08:17:11;;;;;;;31.55;6.82;;;9.80;99.90;;;;;;5082348;28;20106;-65
2024/01/24 08:19:38;;;;;;;32.80;8.48;;;9.80;99.90;;;;;;5116350;27;20051;-65
2024/01/24 08:22:04;;;;;;;36.03;9.43;;;9.70;99.90;;;;;;5080207;28;20044;-65
2024/01/24 08:24:30;;;;;;;38.05;8.13;;;9.70;99.90;;;;;;5082071;28;20047;-65
2024/01/24 08:26:56;;;;;;;31.30;6.68;;;9.80;99.90;;;;;;5059384;28;20040;-65
2024/01/24 08:29:21;;;;;;;35.67;7.45;;;9.70;99.90;;;;;;5078878;28;20661;-65
2024/01/24 08:31:47;;;;;;;35.05;7.60;;;9.80;99.90;;;;;;5118335;27;20044;-65
2024/01/24 08:34:13;;;;;;;35.75;7.38;;;9.90;99.90;;;;;;5079261;28;20040;-65
2024/01/24 08:36:39;;;;;;;31.70;6.90;;;9.80;99.90;;;;;;5065170;28;20079;-65
2024/01/24 08:39:06;;;;;;;32.42;7.78;;;9.90;99.90;;;;;;5081047;28;20487;-65
2024/01/24 08:41:32;;;;;;;38.40;7.95;;;9.90;99.90;;;;;;5078400;28;20398;-65
2024/01/24 08:43:58;;;;;;;37.35;8.05;;;9.90;99.90;;;;;;5109980;27;20048;-65
2024/01/24 08:46:24;;;;;;;33.20;8.38;;;9.90;99.90;;;;;;5096001;27;20040;-65
2024/01/24 08:48:50;;;;;;;35.50;7.80;;;9.90;99.90;;;;;;5087572;28;20042;-65
2024/01/24 08:51:16;;;;;;;35.05;8.48;;;9.90;99.90;;;;;;5075937;28;20047;-65
2024/01/24 08:53:42;;;;;;;34.58;7.75;;;9.90;99.90;;;;;;5082035;28;20028;-65
2024/01/24 08:56:09;;;;;;;33.20;8.05;;;9.90;99.90;;;;;;5080055;28;20048;-65
2024/01/24 08:58:36;;;;;;;34.30;7.63;;;9.80;99.90;;;;;;5080533;28;20040;-65
2024/01/24 09:01:02;;;;;;;36.97;7.85;;;9.90;99.90;;;;;;5082846;28;20390;-65
2024/01/24 09:03:28;;;;;;;34.00;8.30;;;9.90;99.90;;;;;;5114075;27;20040;-65
2024/01/24 09:05:53;;;;;;;34.20;9.77;;;9.90;99.90;;;;;;5080985;28;20036;-65
2024/01/24 09:08:19;;;;;;;42.70;9.50;;;9.90;99.90;;;;;;5078703;28;20086;-65
2024/01/24 09:10:45;;;;;;;37.17;8.02;;;9.90;99.90;;;;;;5081192;28;20036;-65
2024/01/24 09:13:10;;;;;;;30.90;6.65;;;10.00;99.90;;;;;;5079831;28;20479;-65
2024/01/24 09:15:36;;;;;;;32.20;7.78;;;9.90;99.90;;;;;;5082515;28;20051;-65
2024/01/24 09:18:01;;;;;;;34.72;6.72;;;9.90;99.90;;;;;;5079646;28;20055;-65
2024/01/24 09:20:27;;;;;;;35.70;7.65;;;9.90;99.90;;;;;;5080476;28;20130;-65
2024/01/24 09:22:53;;;;;;;31.27;7.38;;;10.00;99.90;;;;;;5083744;28;20036;-65
2024/01/24 09:25:19;;;;;;;31.77;7.25;;;9.90;99.90;;;;;;5076229;28;20144;-65
2024/01/24 09:27:45;;;;;;;29.83;8.13;;;9.90;99.90;;;;;;5075043;28;20036;-65
2024/01/24 09:30:11;;;;;;;32.08;8.02;;;9.90;99.90;;;;;;5080664;28;20044;-65
2024/01/24 09:32:37;;;;;;;30.25;7.82;;;9.90;99.90;;;;;;5065564;28;20082;-65
2024/01/24 09:35:03;;;;;;;29.20;6.75;;;9.90;99.90;;;;;;5083007;28;20040;-65
2024/01/24 09:37:29;;;;;;;28.80;6.80;;;10.00;99.90;;;;;;5080714;28;20119;-65
2024/01/24 09:39:56;;;;;;;27.60;7.65;;;10.00;99.90;;;;;;5078555;28;20139;-65
2024/01/24 09:42:25;;;;;;;33.50;7.93;;;10.10;99.90;;;;;;5080714;28;20059;-65
2024/01/24 09:44:51;;;;;;;33.97;7.10;;;10.10;99.90;;;;;;5083304;28;20045;-65
2024/01/24 09:47:19;;;;;;;23.25;5.30;;;10.10;99.90;;;;;;5084571;28;20036;-65
2024/01/24 09:49:46;;;;;;;26.25;6.45;;;10.50;99.90;;;;;;5082595;28;20067;-65
2024/01/24 09:52:14;;;;;;;31.95;7.20;;;10.20;99.90;;;;;;5081846;28;20040;-65
2024/01/24 09:54:42;;;;;;;27.83;6.95;;;10.20;99.90;;;;;;5061395;28;20131;-65
2024/01/24 09:57:09;;;;;;;27.95;7.55;;;10.30;99.90;;;;;;5080978;28;20043;-65
2024/01/24 09:59:34;;;;;;;31.35;7.15;;;10.30;99.90;;;;;;5081850;28;20039;-65
2024/01/24 10:02:00;;;;;;;23.10;5.05;;;10.40;99.90;;;;;;5078194;28;20036;-65
2024/01/24 10:04:26;;;;;;;32.03;7.47;;;10.40;99.90;;;;;;5083312;28;20055;-64
2024/01/24 10:06:53;;;;;;;27.13;6.57;;;10.40;99.90;;;;;;5081320;28;20486;-65
2024/01/24 10:09:19;;;;;;;28.25;6.68;;;10.40;99.90;;;;;;5118545;27;20051;-65
2024/01/24 10:11:45;;;;;;;27.00;5.35;;;10.40;99.90;;;;;;5079974;28;20036;-65
2024/01/24 10:14:12;;;;;;;34.75;8.18;;;10.40;99.90;;;;;;5116649;27;20146;-65
2024/01/24 10:16:40;;;;;;;25.25;5.90;;;10.50;99.90;;;;;;5085682;28;20545;-65
2024/01/24 10:19:07;;;;;;;23.00;6.47;;;10.50;99.90;;;;;;5083676;28;20036;-65
2024/01/24 10:21:32;;;;;;;24.98;7.05;;;10.60;99.90;;;;;;5079549;28;20540;-65
2024/01/24 10:23:59;;;;;;;26.02;6.00;;;10.60;99.90;;;;;;5085045;28;20048;-65
2024/01/24 10:26:26;;;;;;;26.02;6.35;;;10.60;99.90;;;;;;5083650;28;20143;-64
2024/01/24 10:28:53;;;;;;;25.13;5.25;;;10.70;99.90;;;;;;5084209;28;20032;-65
2024/01/24 10:31:19;;;;;;;27.38;7.15;;;10.60;99.90;;;;;;5082977;28;20036;-65
2024/01/24 10:33:48;;;;;;;23.45;5.45;;;10.70;99.90;;;;;;5082799;28;20090;-65
2024/01/24 10:36:14;;;;;;;25.17;6.10;;;10.70;99.90;;;;;;5102555;27;20044;-65
2024/01/24 10:38:46;;;;;;;25.70;5.15;;;10.70;99.90;;;;;;5080969;28;20052;-65
2024/01/24 10:41:14;;;;;;;22.42;4.55;;;10.80;99.90;;;;;;5098575;28;20070;-65
2024/01/24 10:43:46;;;;;;;21.92;5.78;;;10.80;99.90;;;;;;5084918;28;20414;-65
2024/01/24 10:46:13;;;;;;;25.50;5.60;;;10.90;99.90;;;;;;5084937;28;20194;-65
2024/01/24 10:48:40;;;;;;;27.23;5.80;;;11.00;99.90;;;;;;5081591;28;20048;-65
2024/01/24 10:51:06;;;;;;;27.00;6.97;;;11.00;99.90;;;;;;5085277;28;20037;-65
2024/01/24 10:53:34;;;;;;;29.75;6.15;;;11.00;99.90;;;;;;5082293;28;20036;-65
2024/01/24 10:56:02;;;;;;;26.30;5.13;;;11.10;99.90;;;;;;5079739;28;20119;-65
2024/01/24 10:58:29;;;;;;;25.88;6.03;;;11.10;99.90;;;;;;5090454;28;20512;-65
2024/01/24 11:00:55;;;;;;;24.70;6.00;;;11.10;99.90;;;;;;5087538;28;20102;-65
2024/01/24 11:03:21;;;;;;;23.80;4.85;;;11.20;99.90;;;;;;5077263;28;20037;-65
2024/01/24 11:05:55;;;;;;;18.30;4.07;;;11.20;99.90;;;;;;5115791;27;20085;-64
2024/01/24 11:08:32;;;;;;;23.42;4.45;;;11.30;99.90;;;;;;5115230;27;20127;-65
2024/01/24 11:11:02;;;;;;;24.92;5.72;;;11.30;99.90;;;;;;5077527;28;20093;-65
2024/01/24 11:13:28;;;;;;;28.85;6.40;;;11.40;99.90;;;;;;5086328;28;20039;-65
2024/01/24 11:15:56;;;;;;;26.70;5.78;;;11.40;99.90;;;;;;5081955;28;20048;-65
2024/01/24 11:18:31;;;;;;;23.83;6.25;;;11.40;99.90;;;;;;5116823;27;20124;-65
2024/01/24 11:21:00;;;;;;;19.67;5.05;;;11.50;99.90;;;;;;5081834;28;20051;-65
2024/01/24 11:23:35;;;;;;;24.98;5.15;;;11.50;99.90;;;;;;5082581;28;20447;-65
2024/01/24 11:26:01;;;;;;;22.33;5.60;;;11.50;99.90;;;;;;5081943;28;20097;-65
2024/01/24 11:28:27;;;;;;;26.85;6.00;;;11.60;99.90;;;;;;5079944;28;20044;-65
2024/01/24 11:30:52;;;;;;;16.85;4.18;;;11.80;99.90;;;;;;5077810;28;20109;-65
2024/01/24 11:33:19;;;;;;;22.65;5.28;;;11.70;99.90;;;;;;5063741;28;20405;-65
2024/01/24 11:35:48;;;;;;;24.13;6.07;;;11.70;99.90;;;;;;5072835;28;20052;-65
2024/01/24 11:38:16;;;;;;;20.77;4.78;;;11.80;99.90;;;;;;5081685;28;20048;-65
2024/01/24 11:40:43;;;;;;;23.70;4.93;;;11.90;99.90;;;;;;5067767;28;20044;-65
2024/01/24 11:43:26;;;;;;;23.63;5.72;;;11.90;99.90;;;;;;5081694;28;20036;-65
2024/01/24 11:45:56;;;;;;;20.83;4.95;;;12.00;99.90;;;;;;5085474;28;20036;-65
2024/01/24 11:48:22;;;;;;;21.42;5.47;;;11.90;99.90;;;;;;5082504;28;20543;-65
2024/01/24 11:51:05;;;;;;;21.35;5.43;;;11.80;99.90;;;;;;5080904;28;20037;-64
2024/01/24 11:53:31;;;;;;;21.55;5.68;;;11.80;99.90;;;;;;5080682;28;20115;-64
2024/01/24 11:55:59;;;;;;;20.05;4.95;;;11.70;99.90;;;;;;5087011;28;20036;-65
2024/01/24 11:58:26;;;;;;;22.75;5.35;;;11.60;99.90;;;;;;5114540;27;20040;-65
2024/01/24 12:00:55;;;;;;;30.27;6.65;;;11.60;99.90;;;;;;5079945;28;20448;-65
2024/01/24 12:03:21;;;;;;;24.75;5.35;;;11.60;99.90;;;;;;5080727;28;20070;-65
2024/01/24 12:05:49;;;;;;;19.45;4.22;;;11.60;99.90;;;;;;5084898;28;20036;-64
2024/01/24 12:08:15;;;;;;;25.17;5.90;;;11.50;99.90;;;;;;5105243;28;20044;-65
2024/01/24 12:10:41;;;;;;;22.20;5.30;;;11.70;99.90;;;;;;5082029;28;20471;-65
2024/01/24 12:13:09;;;;;;;19.02;4.60;;;11.50;99.90;;;;;;5110897;27;20131;-65
2024/01/24 12:15:35;;;;;;;23.02;5.15;;;11.50;99.90;;;;;;5073018;28;20050;-64
2024/01/24 12:18:07;;;;;;;24.70;5.55;;;11.50;99.90;;;;;;5084035;28;20122;-64
2024/01/24 12:20:34;;;;;;;21.85;5.40;;;11.50;99.90;;;;;;5066206;28;20042;-65
2024/01/24 12:23:04;;;;;;;23.02;4.57;;;11.50;99.90;;;;;;5112013;27;20056;-64
2024/01/24 12:25:33;;;;;;;23.27;5.35;;;11.60;99.90;;;;;;5113346;27;20090;-65
2024/01/24 12:28:01;;;;;;;22.35;5.00;;;11.60;99.90;;;;;;5109548;27;20056;-64
2024/01/24 12:30:32;;;;;;;25.42;5.25;;;11.60;99.90;;;;;;5076909;28;20075;-64
2024/01/24 12:32:59;;;;;;;22.60;5.22;;;11.50;99.90;;;;;;5082527;28;20402;-64
2024/01/24 12:35:25;;;;;;;23.60;4.93;;;11.60;99.90;;;;;;5078447;28;20123;-64